createdAt,value
2022-12-04T00:00:54.107Z,76.31
2022-12-04T00:02:15.251Z,76.76
2022-12-04T00:03:37.219Z,76.46
2022-12-04T00:04:58.507Z,76.50
2022-12-04T00:06:21.066Z,75.67
2022-12-04T00:07:41.999Z,75.36
2022-12-04T00:09:04.000Z,75.23
2022-12-04T00:10:25.143Z,75.04
2022-12-04T00:11:46.240Z,75.32
2022-12-04T00:13:07.909Z,75.44
2022-12-04T00:14:29.011Z,75.51
2022-12-04T00:15:50.123Z,75.37
2022-12-04T00:17:11.533Z,75.04
2022-12-04T00:18:32.674Z,75.04
2022-12-04T00:19:54.015Z,74.86
2022-12-04T00:21:17.848Z,75.23
2022-12-04T00:22:39.056Z,75.27
2022-12-04T00:24:00.339Z,75.09
2022-12-04T00:25:21.265Z,75.09
2022-12-04T00:26:42.271Z,74.73
2022-12-04T00:28:03.324Z,74.55
2022-12-04T00:29:24.535Z,74.88
2022-12-04T00:30:46.361Z,75.05
2022-12-04T00:32:07.523Z,75.25
2022-12-04T00:33:28.461Z,75.04
2022-12-04T00:34:53.272Z,75.11
2022-12-04T00:36:16.779Z,75.57
2022-12-04T00:37:37.710Z,75.88
2022-12-04T00:39:00.810Z,75.84
2022-12-04T00:40:21.862Z,75.38
2022-12-04T00:41:43.139Z,75.69
2022-12-04T00:43:03.935Z,75.14
2022-12-04T00:44:24.939Z,75.20
2022-12-04T00:45:45.904Z,75.16
2022-12-04T00:47:07.240Z,75.28
2022-12-04T00:48:28.332Z,75.39
2022-12-04T00:49:50.054Z,75.15
2022-12-04T00:51:20.421Z,75.43
2022-12-04T00:52:41.692Z,75.40
2022-12-04T00:54:03.071Z,75.54
2022-12-04T00:55:25.987Z,75.23
2022-12-04T00:56:48.126Z,74.53
2022-12-04T00:58:10.503Z,74.67
2022-12-04T00:59:31.373Z,74.87
2022-12-04T01:01:27.756Z,74.66
2022-12-04T01:02:48.892Z,74.04
2022-12-04T01:04:09.922Z,73.62
2022-12-04T01:05:31.750Z,71.67
2022-12-04T01:06:53.063Z,71.65
2022-12-04T01:08:14.355Z,71.97
2022-12-04T01:09:35.182Z,72.09
2022-12-04T01:10:56.406Z,72.19
2022-12-04T01:12:20.779Z,72.57
2022-12-04T01:13:42.025Z,72.68
2022-12-04T01:15:03.832Z,72.54
2022-12-04T01:16:28.427Z,73.16
2022-12-04T01:17:49.612Z,73.40
2022-12-04T01:19:12.867Z,73.17
2022-12-04T01:20:34.086Z,73.09
2022-12-04T01:21:55.268Z,73.64
2022-12-04T01:23:17.553Z,73.38
2022-12-04T01:24:38.746Z,75.17
2022-12-04T01:25:59.999Z,75.22
2022-12-04T01:27:20.812Z,75.47
2022-12-04T01:28:41.915Z,75.60
2022-12-04T01:30:03.473Z,75.72
2022-12-04T01:31:25.220Z,76.17
2022-12-04T01:32:46.407Z,76.39
2022-12-04T01:34:07.613Z,77.61
2022-12-04T01:35:28.744Z,77.31
2022-12-04T01:36:49.885Z,77.70
2022-12-04T01:38:11.251Z,77.95
2022-12-04T01:39:32.237Z,77.87
2022-12-04T01:40:53.935Z,78.44
2022-12-04T01:42:16.081Z,78.70
2022-12-04T01:43:38.436Z,78.59
2022-12-04T01:45:36.936Z,78.30
2022-12-04T01:47:00.100Z,78.28
2022-12-04T01:48:46.740Z,78.38
2022-12-04T01:50:08.276Z,78.56
2022-12-04T01:51:33.808Z,78.11
2022-12-04T01:52:55.592Z,78.06
2022-12-04T01:54:28.745Z,78.39
2022-12-04T01:55:50.599Z,78.04
2022-12-04T01:57:17.756Z,78.08
2022-12-04T01:58:44.203Z,78.25
2022-12-04T02:00:10.932Z,78.25
2022-12-04T02:01:38.916Z,78.44
2022-12-04T02:03:00.653Z,78.95
2022-12-04T02:04:21.749Z,78.63
2022-12-04T02:05:42.925Z,78.40
2022-12-04T02:07:04.400Z,78.13
2022-12-04T02:08:27.690Z,78.20
2022-12-04T02:09:54.159Z,78.25
2022-12-04T02:11:44.926Z,78.25
2022-12-04T02:13:20.984Z,79.38
2022-12-04T02:15:00.961Z,78.83
2022-12-04T02:16:38.172Z,78.29
2022-12-04T02:18:04.042Z,78.84
2022-12-04T02:19:30.950Z,78.58
2022-12-04T02:21:09.703Z,78.53
2022-12-04T02:22:53.558Z,78.77
2022-12-04T02:24:30.066Z,78.83
2022-12-04T02:26:05.626Z,79.06
2022-12-04T02:27:39.093Z,79.32
2022-12-04T02:29:26.449Z,79.80
2022-12-04T02:30:49.351Z,79.50
2022-12-04T02:32:33.350Z,79.45
2022-12-04T02:34:14.898Z,79.33
2022-12-04T02:35:44.669Z,79.26
2022-12-04T02:37:12.862Z,79.31
2022-12-04T02:38:42.111Z,79.18
2022-12-04T02:40:09.589Z,78.92
2022-12-04T02:41:42.521Z,79.48
2022-12-04T02:43:14.185Z,79.31
2022-12-04T02:44:41.623Z,79.21
2022-12-04T02:46:13.789Z,79.44
2022-12-04T02:47:38.071Z,79.57
2022-12-04T02:49:02.279Z,79.70
2022-12-04T02:50:24.532Z,79.30
2022-12-04T02:51:48.486Z,79.44
2022-12-04T02:53:24.396Z,79.35
2022-12-04T02:54:51.588Z,79.34
2022-12-04T02:56:16.402Z,79.46
2022-12-04T02:57:42.690Z,79.33
2022-12-04T02:59:17.929Z,79.32
2022-12-04T03:00:42.140Z,79.16
2022-12-04T03:02:09.655Z,79.08
2022-12-04T03:03:33.522Z,79.16
2022-12-04T03:04:59.001Z,79.25
2022-12-04T03:06:22.220Z,78.93
2022-12-04T03:07:53.136Z,79.06
2022-12-04T03:09:30.761Z,79.12
2022-12-04T03:10:57.959Z,79.35
2022-12-04T03:12:26.129Z,79.44
2022-12-04T03:14:00.228Z,79.50
2022-12-04T03:15:31.692Z,79.76
2022-12-04T03:16:57.178Z,79.96
2022-12-04T03:18:24.939Z,80.31
2022-12-04T03:19:51.949Z,80.45
2022-12-04T03:21:24.592Z,80.63
2022-12-04T03:22:51.494Z,81.55
2022-12-04T03:24:17.859Z,81.70
2022-12-04T03:25:52.554Z,82.12
2022-12-04T03:27:35.907Z,82.25
2022-12-04T03:29:09.307Z,82.34
2022-12-04T03:30:42.430Z,82.14
2022-12-04T03:32:10.075Z,82.05
2022-12-04T03:33:41.317Z,81.82
2022-12-04T03:35:08.443Z,80.86
2022-12-04T03:36:37.670Z,79.62
2022-12-04T03:38:07.673Z,78.82
2022-12-04T03:39:34.913Z,78.67
2022-12-04T03:41:27.223Z,78.36
2022-12-04T03:43:02.647Z,78.17
2022-12-04T03:44:38.256Z,78.19
2022-12-04T03:46:04.212Z,78.12
2022-12-04T03:48:07.062Z,78.13
2022-12-04T03:50:06.998Z,78.05
2022-12-04T03:51:34.375Z,77.92
2022-12-04T03:53:04.429Z,77.81
2022-12-04T03:54:30.538Z,78.13
2022-12-04T03:56:10.148Z,77.91
2022-12-04T03:57:37.814Z,78.19
2022-12-04T03:59:05.742Z,78.24
2022-12-04T04:00:29.234Z,78.01
2022-12-04T04:01:52.112Z,78.48
2022-12-04T04:03:21.396Z,78.26
2022-12-04T04:04:48.309Z,78.34
2022-12-04T04:06:25.040Z,78.57
2022-12-04T04:07:51.509Z,78.87
2022-12-04T04:09:21.785Z,79.07
2022-12-04T04:10:44.230Z,78.76
2022-12-04T04:12:23.501Z,79.36
2022-12-04T04:14:41.915Z,78.99
2022-12-04T04:16:25.307Z,79.75
2022-12-04T04:18:07.755Z,79.75
2022-12-04T04:19:49.891Z,80.87
2022-12-04T04:21:31.874Z,80.76
2022-12-04T04:23:16.090Z,81.00
2022-12-04T04:24:46.624Z,81.32
2022-12-04T04:26:11.326Z,81.31
2022-12-04T04:27:32.304Z,81.65
2022-12-04T04:28:53.479Z,81.19
2022-12-04T04:30:14.740Z,81.11
2022-12-04T04:31:54.151Z,81.18
2022-12-04T04:33:17.080Z,81.19
2022-12-04T04:34:43.994Z,81.04
2022-12-04T04:36:45.577Z,81.15
2022-12-04T04:38:26.323Z,81.20
2022-12-04T04:39:58.291Z,81.00
2022-12-04T04:41:27.301Z,80.88
2022-12-04T04:43:04.534Z,81.09
2022-12-04T04:44:34.677Z,81.05
2022-12-04T04:46:23.361Z,80.98
2022-12-04T04:48:00.846Z,80.84
2022-12-04T04:49:27.050Z,81.00
2022-12-04T04:50:50.168Z,80.80
2022-12-04T04:52:11.464Z,80.97
2022-12-04T04:53:38.978Z,80.80
2022-12-04T04:55:01.545Z,80.77
2022-12-04T04:56:22.677Z,80.75
2022-12-04T04:57:43.650Z,80.34
2022-12-04T04:59:04.661Z,80.32
2022-12-04T05:00:26.025Z,80.22
2022-12-04T05:01:47.989Z,80.42
2022-12-04T05:03:10.069Z,80.29
2022-12-04T05:04:31.146Z,80.37
2022-12-04T05:05:52.147Z,80.21
2022-12-04T05:07:13.265Z,80.60
2022-12-04T05:08:35.321Z,81.13
2022-12-04T05:09:56.390Z,81.12
2022-12-04T05:11:17.819Z,80.92
2022-12-04T05:12:38.874Z,81.35
2022-12-04T05:14:00.062Z,81.43
2022-12-04T05:15:21.268Z,81.27
2022-12-04T05:16:42.741Z,81.18
2022-12-04T05:18:03.580Z,81.23
2022-12-04T05:19:43.249Z,81.22
2022-12-04T05:21:16.440Z,81.15
2022-12-04T05:22:37.762Z,81.08
2022-12-04T05:23:58.775Z,80.99
2022-12-04T05:25:19.956Z,80.72
2022-12-04T05:26:41.014Z,80.83
2022-12-04T05:28:02.369Z,80.92
2022-12-04T05:29:23.553Z,80.83
2022-12-04T05:30:44.802Z,80.53
2022-12-04T05:32:06.163Z,80.10
2022-12-04T05:33:28.104Z,79.89
2022-12-04T05:34:50.648Z,79.06
2022-12-04T05:36:13.448Z,78.73
2022-12-04T05:37:39.175Z,78.62
2022-12-04T05:39:00.335Z,78.78
2022-12-04T05:40:21.384Z,78.88
2022-12-04T05:41:42.494Z,78.79
2022-12-04T05:43:03.274Z,78.72
2022-12-04T05:44:24.419Z,78.19
2022-12-04T05:45:45.438Z,78.87
2022-12-04T05:47:07.438Z,79.18
2022-12-04T05:48:29.873Z,79.21
2022-12-04T05:49:52.540Z,79.22
2022-12-04T05:51:13.801Z,78.89
2022-12-04T05:52:35.107Z,78.85
2022-12-04T05:53:56.277Z,78.65
2022-12-04T05:55:17.501Z,78.65
2022-12-04T05:56:38.566Z,78.93
2022-12-04T05:58:00.193Z,78.75
2022-12-04T05:59:21.131Z,79.68
2022-12-04T06:00:42.095Z,79.88
2022-12-04T06:02:03.446Z,79.99
2022-12-04T06:03:24.433Z,79.99
2022-12-04T06:04:46.191Z,80.26
2022-12-04T06:06:17.629Z,79.79
2022-12-04T06:07:42.610Z,79.67
2022-12-04T06:09:05.013Z,79.34
2022-12-04T06:10:25.625Z,79.01
2022-12-04T06:11:46.944Z,78.73
2022-12-04T06:13:08.182Z,79.08
2022-12-04T06:14:29.404Z,78.84
2022-12-04T06:15:51.046Z,78.41
2022-12-04T06:17:12.175Z,78.96
2022-12-04T06:18:33.407Z,78.76
2022-12-04T06:19:56.236Z,78.73
2022-12-04T06:21:17.771Z,77.80
2022-12-04T06:22:39.241Z,77.84
2022-12-04T06:24:00.213Z,77.78
2022-12-04T06:25:21.176Z,77.30
2022-12-04T06:27:03.987Z,76.95
2022-12-04T06:28:23.911Z,76.63
2022-12-04T06:29:45.174Z,76.55
2022-12-04T06:31:09.405Z,76.00
2022-12-04T06:32:30.419Z,76.08
2022-12-04T06:33:54.038Z,76.04
2022-12-04T06:35:15.427Z,76.07
2022-12-04T06:36:36.386Z,76.07
2022-12-04T06:37:57.482Z,75.23
2022-12-04T06:39:19.278Z,74.64
2022-12-04T06:40:40.620Z,74.51
2022-12-04T06:42:01.415Z,74.01
2022-12-04T06:43:22.858Z,73.25
2022-12-04T06:44:43.774Z,72.97
2022-12-04T06:46:09.541Z,72.07
2022-12-04T06:47:30.726Z,72.25
2022-12-04T06:48:52.112Z,72.06
2022-12-04T06:50:13.751Z,71.74
2022-12-04T06:51:37.573Z,71.74
2022-12-04T06:53:02.211Z,71.73
2022-12-04T06:54:26.572Z,71.97
2022-12-04T06:55:48.840Z,72.40
2022-12-04T06:57:10.010Z,72.11
2022-12-04T06:58:31.412Z,71.88
2022-12-04T06:59:52.525Z,71.05
2022-12-04T07:01:20.130Z,71.36
2022-12-04T07:02:41.400Z,71.54
2022-12-04T07:04:04.271Z,71.70
2022-12-04T07:05:27.053Z,72.34
2022-12-04T07:06:48.150Z,73.02
2022-12-04T07:08:09.290Z,72.13
2022-12-04T07:09:30.572Z,71.76
2022-12-04T07:10:57.433Z,72.08
2022-12-04T07:12:23.271Z,72.63
2022-12-04T07:13:44.306Z,72.54
2022-12-04T07:15:06.147Z,71.72
2022-12-04T07:16:28.694Z,72.05
2022-12-04T07:17:49.891Z,72.01
2022-12-04T07:19:14.616Z,71.01
2022-12-04T07:20:36.199Z,70.35
2022-12-04T07:21:57.209Z,69.21
2022-12-04T07:23:18.434Z,67.74
2022-12-04T07:24:39.560Z,64.59
2022-12-04T07:26:08.921Z,61.15
2022-12-04T07:27:32.786Z,58.35
2022-12-04T07:28:54.817Z,54.87
2022-12-04T07:30:16.250Z,51.38
2022-12-04T07:31:38.456Z,48.50
2022-12-04T07:32:59.364Z,46.46
2022-12-04T07:34:20.730Z,44.99
2022-12-04T07:35:41.782Z,43.59
2022-12-04T07:37:03.051Z,41.78
2022-12-04T07:38:24.253Z,44.77
2022-12-04T07:39:45.473Z,49.29
2022-12-04T07:41:08.146Z,53.13
2022-12-04T07:42:29.484Z,54.60
2022-12-04T07:43:50.440Z,55.25
2022-12-04T07:45:12.481Z,57.15
2022-12-04T07:46:33.398Z,58.00
2022-12-04T07:47:56.149Z,59.71
2022-12-04T07:49:17.329Z,60.40
2022-12-04T07:50:38.783Z,60.40
2022-12-04T07:51:59.632Z,60.07
2022-12-04T07:53:20.703Z,59.25
2022-12-04T07:54:42.837Z,59.45
2022-12-04T07:56:07.899Z,59.92
2022-12-04T07:57:28.910Z,60.96
2022-12-04T07:58:50.197Z,59.02
2022-12-04T08:00:12.019Z,46.95
2022-12-04T08:01:33.642Z,38.42
2022-12-04T08:02:55.355Z,32.85
2022-12-04T08:04:16.663Z,30.27
2022-12-04T08:05:37.929Z,29.03
2022-12-04T08:06:59.130Z,28.05
2022-12-04T08:08:20.325Z,28.73
2022-12-04T08:09:41.543Z,32.64
2022-12-04T08:11:07.432Z,37.19
2022-12-04T08:12:28.759Z,38.71
2022-12-04T08:14:00.711Z,39.60
2022-12-04T08:15:21.602Z,41.91
2022-12-04T08:16:48.258Z,42.45
2022-12-04T08:18:14.475Z,43.63
2022-12-04T08:19:35.437Z,43.08
2022-12-04T08:21:05.691Z,42.18
2022-12-04T08:22:26.783Z,37.13
2022-12-04T08:23:49.867Z,32.73
2022-12-04T08:25:10.962Z,30.88
2022-12-04T08:26:33.996Z,30.31
2022-12-04T08:27:55.034Z,26.17
2022-12-04T08:29:15.844Z,25.13
2022-12-04T08:30:37.078Z,25.90
2022-12-04T08:31:58.644Z,24.95
2022-12-04T08:33:19.670Z,24.15
2022-12-04T08:34:40.778Z,24.04
2022-12-04T08:36:05.512Z,23.25
2022-12-04T08:37:27.608Z,21.78
2022-12-04T08:38:49.116Z,20.32
2022-12-04T08:40:11.924Z,23.31
2022-12-04T08:41:33.004Z,26.92
2022-12-04T08:42:54.207Z,29.75
2022-12-04T08:44:15.485Z,28.23
2022-12-04T08:45:36.408Z,25.29
2022-12-04T08:46:57.454Z,27.56
2022-12-04T08:48:18.707Z,32.65
2022-12-04T08:49:39.556Z,34.48
2022-12-04T08:51:01.672Z,30.49
2022-12-04T08:52:22.749Z,27.81
2022-12-04T08:53:44.073Z,29.72
2022-12-04T08:55:05.271Z,31.90
2022-12-04T08:56:28.739Z,30.96
2022-12-04T08:57:52.519Z,26.46
2022-12-04T08:59:14.231Z,24.99
2022-12-04T09:00:35.435Z,29.98
2022-12-04T09:01:56.528Z,34.33
2022-12-04T09:03:19.591Z,38.79
2022-12-04T09:04:40.904Z,40.98
2022-12-04T09:06:04.757Z,42.44
2022-12-04T09:07:26.043Z,43.12
2022-12-04T09:08:47.673Z,43.48
2022-12-04T09:10:09.680Z,43.82
2022-12-04T09:11:32.607Z,44.07
2022-12-04T09:12:53.961Z,45.27
2022-12-04T09:14:15.145Z,44.81
2022-12-04T09:15:40.155Z,44.19
2022-12-04T09:17:01.228Z,40.64
2022-12-04T09:18:22.486Z,38.29
2022-12-04T09:19:43.700Z,39.63
2022-12-04T09:21:08.556Z,36.14
2022-12-04T09:22:45.515Z,39.21
2022-12-04T09:24:10.604Z,41.35
2022-12-04T09:25:35.037Z,43.00
2022-12-04T09:26:56.093Z,46.59
2022-12-04T09:28:17.211Z,48.33
2022-12-04T09:29:38.413Z,51.34
2022-12-04T09:31:02.359Z,53.01
2022-12-04T09:32:23.314Z,53.39
2022-12-04T09:33:45.167Z,54.60
2022-12-04T09:35:07.168Z,55.40
2022-12-04T09:36:28.941Z,56.04
2022-12-04T09:37:50.008Z,56.62
2022-12-04T09:39:11.007Z,56.33
2022-12-04T09:41:09.011Z,57.73
2022-12-04T09:42:48.732Z,56.84
2022-12-04T09:44:23.846Z,56.21
2022-12-04T09:45:51.421Z,53.96
2022-12-04T09:47:31.744Z,54.37
2022-12-04T09:48:53.995Z,53.48
2022-12-04T09:50:22.529Z,49.24
2022-12-04T09:51:44.857Z,46.95
2022-12-04T09:53:16.059Z,47.77
2022-12-04T09:54:42.327Z,49.69
2022-12-04T09:56:10.857Z,50.28
2022-12-04T09:57:38.867Z,51.64
2022-12-04T09:59:14.583Z,51.40
2022-12-04T10:00:39.389Z,51.76
2022-12-04T10:02:15.773Z,51.65
2022-12-04T10:03:36.724Z,51.66
2022-12-04T10:04:58.027Z,51.21
2022-12-04T10:06:26.697Z,52.47
2022-12-04T10:08:01.534Z,52.38
2022-12-04T10:09:35.307Z,53.09
2022-12-04T10:11:05.584Z,52.84
2022-12-04T10:13:00.876Z,51.81
2022-12-04T10:14:58.608Z,52.05
2022-12-04T10:16:33.060Z,51.35
2022-12-04T10:18:02.772Z,51.16
2022-12-04T10:19:27.005Z,51.29
2022-12-04T10:21:11.403Z,50.70
2022-12-04T10:23:08.191Z,49.06
2022-12-04T10:24:45.559Z,47.36
2022-12-04T10:26:15.812Z,46.33
2022-12-04T10:27:42.735Z,45.13
2022-12-04T10:29:08.800Z,45.53
2022-12-04T10:30:32.656Z,44.11
2022-12-04T10:31:57.132Z,42.89
2022-12-04T10:33:27.994Z,43.53
2022-12-04T10:34:52.513Z,43.71
2022-12-04T10:36:17.807Z,43.97
2022-12-04T10:37:41.513Z,45.39
2022-12-04T10:39:24.842Z,46.24
2022-12-04T10:40:55.808Z,46.23
2022-12-04T10:42:19.588Z,46.39
2022-12-04T10:43:45.218Z,47.68
2022-12-04T10:45:07.250Z,45.31
2022-12-04T10:46:32.946Z,42.43
2022-12-04T10:47:54.111Z,42.77
2022-12-04T10:49:31.013Z,43.87
2022-12-04T10:50:52.225Z,45.04
2022-12-04T10:52:13.667Z,45.48
2022-12-04T10:53:37.056Z,46.50
2022-12-04T10:55:00.832Z,46.49
2022-12-04T10:56:24.683Z,46.77
2022-12-04T10:57:46.945Z,47.68
2022-12-04T10:59:15.878Z,48.54
2022-12-04T11:00:36.887Z,49.08
2022-12-04T11:02:06.321Z,49.61
2022-12-04T11:03:29.551Z,50.50
2022-12-04T11:05:02.799Z,52.79
2022-12-04T11:06:26.566Z,51.22
2022-12-04T11:07:49.040Z,50.48
2022-12-04T11:09:22.409Z,52.81
2022-12-04T11:10:44.177Z,54.34
2022-12-04T11:12:09.159Z,55.56
2022-12-04T11:13:29.931Z,54.78
2022-12-04T11:15:20.464Z,53.73
2022-12-04T11:16:48.339Z,52.57
2022-12-04T11:18:16.462Z,53.56
2022-12-04T11:19:37.842Z,55.43
2022-12-04T11:21:12.915Z,55.08
2022-12-04T11:22:48.062Z,54.56
2022-12-04T11:24:23.627Z,55.23
2022-12-04T11:25:48.842Z,55.24
2022-12-04T11:27:31.627Z,55.05
2022-12-04T11:28:55.095Z,54.97
2022-12-04T11:30:26.121Z,55.67
2022-12-04T11:31:52.491Z,57.50
2022-12-04T11:33:20.759Z,58.98
2022-12-04T11:34:41.910Z,60.71
2022-12-04T11:36:07.920Z,60.12
2022-12-04T11:37:33.804Z,60.52
2022-12-04T11:39:11.751Z,60.25
2022-12-04T11:40:34.262Z,60.28
2022-12-04T11:42:13.703Z,59.52
2022-12-04T11:43:37.765Z,60.49
2022-12-04T11:45:18.432Z,60.28
2022-12-04T11:46:39.667Z,60.70
2022-12-04T11:48:05.158Z,60.67
2022-12-04T11:49:27.474Z,60.67
2022-12-04T11:51:23.919Z,60.52
2022-12-04T11:52:52.126Z,60.88
2022-12-04T11:54:46.295Z,61.05
2022-12-04T11:56:27.458Z,60.57
2022-12-04T11:57:54.250Z,60.63
2022-12-04T11:59:34.383Z,61.37
2022-12-04T12:01:21.747Z,61.49
2022-12-04T12:03:10.142Z,61.44
2022-12-04T12:04:56.010Z,61.30
2022-12-04T12:06:32.901Z,61.60
2022-12-04T12:08:36.055Z,61.26
2022-12-04T12:09:57.465Z,61.77
2022-12-04T12:11:46.638Z,62.13
2022-12-04T12:13:42.105Z,61.66
2022-12-04T12:15:31.978Z,61.40
2022-12-04T12:17:08.603Z,61.56
2022-12-04T12:18:51.911Z,61.66
2022-12-04T12:20:32.491Z,61.55
2022-12-04T12:22:13.463Z,61.33
2022-12-04T12:23:56.030Z,61.72
2022-12-04T12:25:33.223Z,61.06
2022-12-04T12:27:19.182Z,60.73
2022-12-04T12:29:01.822Z,60.59
2022-12-04T12:30:24.725Z,60.53
2022-12-04T12:31:54.673Z,61.22
2022-12-04T12:33:24.502Z,61.81
2022-12-04T12:34:46.582Z,61.30
2022-12-04T12:36:14.154Z,60.81
2022-12-04T12:37:58.937Z,61.14
2022-12-04T12:39:53.988Z,60.58
2022-12-04T12:41:27.369Z,60.09
2022-12-04T12:43:03.210Z,60.47
2022-12-04T12:44:34.617Z,60.24
2022-12-04T12:46:16.147Z,60.41
2022-12-04T12:47:42.420Z,60.55
2022-12-04T12:49:24.659Z,61.13
2022-12-04T12:51:08.929Z,61.95
2022-12-04T12:53:06.281Z,61.80
2022-12-04T12:54:38.924Z,61.07
2022-12-04T12:56:03.951Z,61.00
2022-12-04T12:57:38.592Z,60.97
2022-12-04T12:59:10.348Z,60.67
2022-12-04T13:00:37.120Z,60.54
2022-12-04T13:02:08.298Z,60.77
2022-12-04T13:03:35.562Z,60.74
2022-12-04T13:05:01.283Z,60.42
2022-12-04T13:06:30.380Z,61.06
2022-12-04T13:08:10.890Z,61.36
2022-12-04T13:09:39.698Z,61.28
2022-12-04T13:11:20.903Z,60.97
2022-12-04T13:12:50.804Z,61.27
2022-12-04T13:14:13.402Z,61.32
2022-12-04T13:15:52.070Z,61.43
2022-12-04T13:17:36.234Z,62.05
2022-12-04T13:19:36.217Z,61.61
2022-12-04T13:21:00.772Z,61.73
2022-12-04T13:22:40.090Z,62.49
2022-12-04T13:24:23.567Z,63.93
2022-12-04T13:26:23.366Z,64.15
2022-12-04T13:28:11.855Z,65.12
2022-12-04T13:29:32.894Z,65.63
2022-12-04T13:31:20.408Z,66.30
2022-12-04T13:33:04.719Z,66.24
2022-12-04T13:34:40.527Z,66.67
2022-12-04T13:36:07.788Z,66.56
2022-12-04T13:37:28.766Z,66.35
2022-12-04T13:38:57.893Z,66.52
2022-12-04T13:40:19.269Z,66.70
2022-12-04T13:41:40.512Z,67.16
2022-12-04T13:43:38.968Z,67.10
2022-12-04T13:45:06.409Z,67.18
2022-12-04T13:46:34.860Z,66.84
2022-12-04T13:47:59.022Z,66.95
2022-12-04T13:49:45.900Z,67.67
2022-12-04T13:51:07.166Z,67.81
2022-12-04T13:52:40.912Z,67.57
2022-12-04T13:54:21.432Z,67.62
2022-12-04T13:55:42.412Z,67.91
2022-12-04T13:57:25.807Z,67.57
2022-12-04T13:58:46.629Z,67.03
2022-12-04T14:00:26.259Z,67.30
2022-12-04T14:01:50.848Z,68.25
2022-12-04T14:03:33.038Z,67.84
2022-12-04T14:04:59.440Z,67.98
2022-12-04T14:06:28.755Z,68.14
2022-12-04T14:08:08.438Z,69.13
2022-12-04T14:09:41.813Z,69.20
2022-12-04T14:11:05.880Z,68.76
2022-12-04T14:12:37.621Z,68.83
2022-12-04T14:14:04.952Z,68.41
2022-12-04T14:15:32.983Z,68.67
2022-12-04T14:16:56.036Z,68.42
2022-12-04T14:18:29.595Z,68.18
2022-12-04T14:20:00.761Z,68.96
2022-12-04T14:21:24.905Z,68.85
2022-12-04T14:22:46.935Z,68.64
2022-12-04T14:24:31.059Z,69.66
2022-12-04T14:25:59.080Z,69.28
2022-12-04T14:27:42.311Z,69.69
2022-12-04T14:29:45.048Z,70.09
2022-12-04T14:31:09.108Z,71.00
2022-12-04T14:32:33.935Z,70.81
2022-12-04T14:34:24.615Z,71.16
2022-12-04T14:35:56.674Z,71.42
2022-12-04T14:37:23.789Z,71.34
2022-12-04T14:38:47.892Z,71.11
2022-12-04T14:40:21.950Z,70.90
2022-12-04T14:41:43.193Z,71.23
2022-12-04T14:43:05.027Z,71.02
2022-12-04T14:44:29.625Z,71.69
2022-12-04T14:45:53.962Z,72.24
2022-12-04T14:47:48.959Z,72.12
2022-12-04T14:49:18.830Z,72.23
2022-12-04T14:50:47.573Z,72.48
2022-12-04T14:52:31.613Z,72.15
2022-12-04T14:54:03.525Z,71.76
2022-12-04T14:55:52.421Z,71.62
2022-12-04T14:57:33.669Z,72.68
2022-12-04T14:58:55.472Z,72.48
2022-12-04T15:00:19.824Z,72.61
2022-12-04T15:01:41.055Z,73.40
2022-12-04T15:03:02.798Z,73.30
2022-12-04T15:04:28.021Z,73.42
2022-12-04T15:05:51.041Z,74.27
2022-12-04T15:07:24.769Z,74.06
2022-12-04T15:08:52.026Z,74.50
2022-12-04T15:11:07.704Z,74.34
2022-12-04T15:12:34.427Z,75.19
2022-12-04T15:14:12.855Z,74.85
2022-12-04T15:15:33.985Z,75.45
2022-12-04T15:17:04.592Z,76.65
2022-12-04T15:18:28.377Z,76.58
2022-12-04T15:19:49.349Z,76.75
2022-12-04T15:21:11.800Z,77.00
2022-12-04T15:22:33.090Z,77.12
2022-12-04T15:23:54.091Z,76.89
2022-12-04T15:25:21.331Z,76.91
2022-12-04T15:26:42.361Z,76.78
2022-12-04T15:28:13.008Z,76.98
2022-12-04T15:29:38.162Z,76.86
2022-12-04T15:31:03.119Z,77.11
2022-12-04T15:32:28.809Z,76.98
2022-12-04T15:33:55.561Z,77.05
2022-12-04T15:35:25.727Z,77.56
2022-12-04T15:37:00.859Z,77.51
2022-12-04T15:38:22.009Z,77.20
2022-12-04T15:39:45.234Z,77.31
2022-12-04T15:41:08.322Z,77.74
2022-12-04T15:42:30.244Z,77.45
2022-12-04T15:43:51.556Z,77.42
2022-12-04T15:45:13.212Z,77.66
2022-12-04T15:46:38.017Z,77.33
2022-12-04T15:47:59.326Z,77.68
2022-12-04T15:49:26.193Z,77.45
2022-12-04T15:50:56.223Z,77.84
2022-12-04T15:52:18.636Z,77.34
2022-12-04T15:53:40.499Z,77.42
2022-12-04T15:55:07.727Z,77.57
2022-12-04T15:56:29.495Z,77.78
2022-12-04T15:57:54.447Z,77.82
2022-12-04T15:59:18.348Z,77.68
2022-12-04T16:00:40.844Z,77.37
2022-12-04T16:02:24.526Z,77.09
2022-12-04T16:03:50.174Z,77.45
2022-12-04T16:05:20.983Z,77.15
2022-12-04T16:06:47.402Z,77.05
2022-12-04T16:08:39.331Z,77.36
2022-12-04T16:10:04.068Z,77.47
2022-12-04T16:11:32.331Z,77.96
2022-12-04T16:12:58.562Z,77.54
2022-12-04T16:14:19.660Z,78.23
2022-12-04T16:15:43.717Z,78.72
2022-12-04T16:17:06.761Z,78.54
2022-12-04T16:18:28.944Z,78.69
2022-12-04T16:19:50.460Z,78.97
2022-12-04T16:21:17.139Z,78.67
2022-12-04T16:22:40.571Z,78.90
2022-12-04T16:24:05.957Z,78.85
2022-12-04T16:25:28.944Z,78.59
2022-12-04T16:26:51.904Z,78.26
2022-12-04T16:28:12.971Z,78.74
2022-12-04T16:29:34.089Z,78.49
2022-12-04T16:30:55.382Z,78.18
2022-12-04T16:32:19.525Z,78.08
2022-12-04T16:33:40.935Z,78.25
2022-12-04T16:35:02.412Z,78.38
2022-12-04T16:36:23.752Z,78.32
2022-12-04T16:37:45.448Z,78.48
2022-12-04T16:39:07.033Z,78.68
2022-12-04T16:40:28.041Z,78.32
2022-12-04T16:41:49.286Z,78.68
2022-12-04T16:43:15.213Z,78.94
2022-12-04T16:44:37.589Z,79.20
2022-12-04T16:46:01.346Z,79.19
2022-12-04T16:47:23.325Z,79.17
2022-12-04T16:48:44.447Z,78.92
2022-12-04T16:50:06.325Z,79.08
2022-12-04T16:51:27.747Z,78.66
2022-12-04T16:52:48.963Z,78.64
2022-12-04T16:54:11.777Z,78.43
2022-12-04T16:55:38.976Z,78.92
2022-12-04T16:57:00.065Z,78.60
2022-12-04T16:58:21.022Z,78.73
2022-12-04T16:59:42.603Z,78.51
2022-12-04T17:01:06.004Z,78.51
2022-12-04T17:02:27.058Z,78.42
2022-12-04T17:03:48.540Z,78.40
2022-12-04T17:05:19.008Z,79.02
2022-12-04T17:06:40.682Z,78.58
2022-12-04T17:08:02.279Z,79.06
2022-12-04T17:09:23.374Z,79.00
2022-12-04T17:10:44.514Z,79.15
2022-12-04T17:12:05.688Z,79.14
2022-12-04T17:13:29.958Z,79.02
2022-12-04T17:14:51.082Z,79.34
2022-12-04T17:16:15.065Z,79.50
2022-12-04T17:17:37.142Z,79.53
2022-12-04T17:18:58.709Z,79.88
2022-12-04T17:20:21.086Z,79.16
2022-12-04T17:21:42.162Z,79.76
2022-12-04T17:23:06.360Z,79.10
2022-12-04T17:24:27.513Z,78.91
2022-12-04T17:25:48.683Z,79.21
2022-12-04T17:27:12.933Z,79.13
2022-12-04T17:28:36.464Z,78.97
2022-12-04T17:29:57.419Z,78.44
2022-12-04T17:31:24.044Z,78.91
2022-12-04T17:32:46.210Z,78.39
2022-12-04T17:34:07.326Z,78.44
2022-12-04T17:35:28.248Z,78.65
2022-12-04T17:36:49.444Z,78.49
2022-12-04T17:38:10.507Z,78.40
2022-12-04T17:39:32.012Z,78.81
2022-12-04T17:41:00.847Z,78.49
2022-12-04T17:42:22.274Z,78.02
2022-12-04T17:43:43.984Z,78.43
2022-12-04T17:45:05.464Z,78.19
2022-12-04T17:46:26.260Z,78.19
2022-12-04T17:47:47.467Z,76.90
2022-12-04T17:49:08.541Z,76.20
2022-12-04T17:50:29.583Z,76.07
2022-12-04T17:51:50.448Z,75.86
2022-12-04T17:53:11.274Z,76.33
2022-12-04T17:54:32.739Z,76.19
2022-12-04T17:55:53.773Z,76.19
2022-12-04T17:57:14.776Z,76.23
2022-12-04T17:58:37.454Z,76.17
2022-12-04T17:59:58.664Z,76.33
2022-12-04T18:01:22.526Z,76.24
2022-12-04T18:02:48.745Z,76.08
2022-12-04T18:04:13.301Z,76.65
2022-12-04T18:05:34.574Z,76.86
2022-12-04T18:06:56.574Z,76.53
2022-12-04T18:08:17.787Z,76.79
2022-12-04T18:09:39.626Z,76.98
2022-12-04T18:11:03.987Z,77.16
2022-12-04T18:12:25.446Z,77.29
2022-12-04T18:13:53.813Z,77.18
2022-12-04T18:15:16.199Z,77.44
2022-12-04T18:16:39.762Z,77.70
2022-12-04T18:18:01.046Z,77.97
2022-12-04T18:19:30.297Z,77.73
2022-12-04T18:21:10.493Z,78.14
2022-12-04T18:22:31.352Z,78.29
2022-12-04T18:23:52.860Z,78.32
2022-12-04T18:25:13.499Z,78.30
2022-12-04T18:26:39.374Z,78.45
2022-12-04T18:28:01.145Z,78.42
2022-12-04T18:29:24.024Z,78.45
2022-12-04T18:30:44.710Z,78.32
2022-12-04T18:32:06.002Z,78.57
2022-12-04T18:33:29.098Z,78.80
2022-12-04T18:34:50.046Z,78.44
2022-12-04T18:36:18.571Z,78.72
2022-12-04T18:37:39.246Z,78.33
2022-12-04T18:39:01.601Z,78.30
2022-12-04T18:40:26.499Z,78.38
2022-12-04T18:41:47.932Z,78.32